Time;durP1;ratioP1;P1;durP2;ratioP2;P2;SDS_P1;SDS_P2;PMS_P1;PMS_P2;Temp;Humidity;BMP_temperature;BMP_pressure;BME280_temperature;BME280_humidity;BME280_pressure;Samples;Min_cycle;Max_cycle;Signal;HPM_P1;HPM_P2
2022/08/14 00:01:22;;;;;;;;;;;20.40;72.30;;;;;;5054726;28;19938;-96
2022/08/14 00:03:48;;;;;;;;;;;20.30;71.70;;;;;;5053122;28;20033;-96
2022/08/14 00:06:13;;;;;;;;;;;20.10;72.40;;;;;;5054640;28;19942;-96
2022/08/14 00:08:39;;;;;;;;;;;20.00;72.60;;;;;;5054219;28;19959;-96
2022/08/14 00:11:04;;;;;;;;;;;20.00;73.20;;;;;;5054807;28;20027;-96
2022/08/14 00:13:30;;;;;;;;;;;20.00;73.40;;;;;;5052945;28;19950;-96
2022/08/14 00:15:57;;;;;;;;;;;20.00;73.30;;;;;;5054784;28;19947;-96
2022/08/14 00:18:25;;;;;;;;;;;20.00;73.40;;;;;;5054451;28;19941;-96
2022/08/14 00:20:51;;;;;;;;;;;20.10;73.80;;;;;;5054395;28;19946;-96
2022/08/14 00:23:17;;;;;;;;;;;20.10;74.00;;;;;;5054086;28;19983;-96
2022/08/14 00:25:47;;;;;;;;;;;20.00;73.70;;;;;;5054360;28;19981;-96
2022/08/14 00:28:13;;;;;;;;;;;19.80;75.30;;;;;;5054232;28;20030;-95
2022/08/14 00:30:39;;;;;;;;;;;19.80;75.60;;;;;;5054580;28;20086;-96
2022/08/14 00:33:04;;;;;;;;;;;19.80;74.40;;;;;;5052677;28;20015;-96
2022/08/14 00:35:30;;;;;;;;;;;19.90;74.50;;;;;;5054150;28;19973;-95
2022/08/14 00:37:56;;;;;;;;;;;19.80;74.70;;;;;;5053857;28;19944;-95
2022/08/14 00:40:22;;;;;;;;;;;19.70;74.50;;;;;;5054161;28;19941;-96
2022/08/14 00:42:48;;;;;;;;;;;19.50;76.00;;;;;;5052566;28;19941;-96
2022/08/14 00:45:14;;;;;;;;;;;19.40;76.00;;;;;;5054387;28;19990;-95
2022/08/14 00:47:40;;;;;;;;;;;19.50;76.50;;;;;;5053777;28;19942;-96
2022/08/14 00:50:06;;;;;;;;;;;19.40;77.40;;;;;;5120027;22;19984;-96
2022/08/14 00:52:32;;;;;;;;;;;19.40;77.90;;;;;;5114291;28;19943;-96
2022/08/14 00:54:58;;;;;;;;;;;19.30;78.00;;;;;;5114646;28;19942;-96
2022/08/14 00:57:27;;;;;;;;;;;19.30;78.50;;;;;;5114139;28;19962;-96
2022/08/14 00:59:56;;;;;;;;;;;19.30;78.60;;;;;;5114966;28;19939;-96
2022/08/14 01:02:24;;;;;;;;;;;19.20;77.30;;;;;;5114209;28;19968;-96
2022/08/14 01:04:51;;;;;;;;;;;19.00;77.30;;;;;;5114785;28;19939;-96
2022/08/14 01:07:19;;;;;;;;;;;18.90;78.30;;;;;;5114201;28;19943;-96
2022/08/14 01:09:46;;;;;;;;;;;18.90;78.90;;;;;;5114754;28;19957;-96
2022/08/14 01:12:13;;;;;;;;;;;18.90;79.50;;;;;;5118357;28;19944;-96
2022/08/14 01:14:39;;;;;;;;;;;18.90;79.90;;;;;;5118852;28;19937;-96
2022/08/14 01:17:05;;;;;;;;;;;18.80;80.00;;;;;;5118526;28;20041;-95
2022/08/14 01:22:14;;;;;;;;;;;18.80;79.50;;;;;;5118482;28;19947;-95
2022/08/14 01:24:40;;;;;;;;;;;18.80;79.10;;;;;;5099856;28;19942;-96
2022/08/14 01:27:06;;;;;;;;;;;18.80;78.90;;;;;;5118636;28;19947;-96
2022/08/14 01:29:36;;;;;;;;;;;18.80;78.00;;;;;;5117958;28;20473;-96
2022/08/14 01:32:03;;;;;;;;;;;18.70;77.80;;;;;;5099628;28;20464;-96
2022/08/14 01:34:31;;;;;;;;;;;18.80;78.10;;;;;;5118176;28;19949;-96
2022/08/14 01:36:58;;;;;;;;;;;18.80;77.90;;;;;;5117740;28;19962;-96
2022/08/14 01:39:24;;;;;;;;;;;18.60;77.80;;;;;;5118091;28;19942;-96
2022/08/14 01:41:59;;;;;;;;;;;18.60;78.30;;;;;;5117771;28;20032;-96
2022/08/14 01:44:30;;;;;;;;;;;18.70;77.50;;;;;;5118248;28;19937;-96
2022/08/14 01:46:57;;;;;;;;;;;18.70;77.70;;;;;;5117933;28;19934;-96
2022/08/14 01:49:23;;;;;;;;;;;18.70;77.50;;;;;;5117576;28;19984;-96
2022/08/14 01:51:55;;;;;;;;;;;18.70;77.80;;;;;;5117847;28;19937;-96
2022/08/14 01:54:22;;;;;;;;;;;18.70;77.60;;;;;;5117446;28;19941;-96
2022/08/14 01:56:54;;;;;;;;;;;18.70;77.50;;;;;;5099117;28;19936;-95
2022/08/14 01:59:22;;;;;;;;;;;18.70;76.60;;;;;;5117430;28;19942;-95
2022/08/14 02:01:50;;;;;;;;;;;18.60;76.80;;;;;;5117888;28;19993;-96
2022/08/14 02:04:16;;;;;;;;;;;18.60;77.20;;;;;;5117351;28;19943;-96
2022/08/14 02:06:42;;;;;;;;;;;18.70;77.50;;;;;;5117581;28;20028;-96
2022/08/14 02:09:08;;;;;;;;;;;18.90;76.90;;;;;;5117149;28;19955;-96
2022/08/14 02:11:34;;;;;;;;;;;18.80;77.00;;;;;;5117506;28;20000;-95
2022/08/14 02:13:59;;;;;;;;;;;18.90;76.90;;;;;;5117132;28;20314;-96
2022/08/14 02:16:28;;;;;;;;;;;18.80;76.20;;;;;;5098859;28;19936;-96
2022/08/14 02:18:58;;;;;;;;;;;18.70;76.40;;;;;;5117352;28;19938;-96
2022/08/14 02:21:24;;;;;;;;;;;18.40;76.10;;;;;;5116854;28;19984;-94
2022/08/14 02:23:50;;;;;;;;;;;18.40;76.50;;;;;;5117246;28;19986;-95
2022/08/14 02:26:18;;;;;;;;;;;18.30;77.00;;;;;;5116902;28;19935;-96
2022/08/14 02:28:45;;;;;;;;;;;18.00;77.30;;;;;;5117078;28;19960;-96
2022/08/14 02:31:11;;;;;;;;;;;17.70;79.20;;;;;;5116784;28;20306;-96
2022/08/14 02:33:37;;;;;;;;;;;17.50;80.10;;;;;;5117095;28;19949;-96
2022/08/14 02:36:03;;;;;;;;;;;17.50;80.50;;;;;;5117247;28;19960;-95
2022/08/14 02:38:32;;;;;;;;;;;17.60;80.60;;;;;;5116654;28;19936;-94
2022/08/14 02:40:58;;;;;;;;;;;17.60;80.60;;;;;;5117224;28;19939;-96
2022/08/14 02:43:23;;;;;;;;;;;17.60;80.80;;;;;;5116886;28;19941;-96
2022/08/14 02:45:49;;;;;;;;;;;17.80;80.90;;;;;;5116868;28;20388;-95
2022/08/14 02:48:14;;;;;;;;;;;18.00;80.20;;;;;;5098005;28;19983;-95
2022/08/14 02:50:42;;;;;;;;;;;18.00;80.50;;;;;;5116712;28;19938;-96
2022/08/14 02:53:10;;;;;;;;;;;18.10;79.70;;;;;;5116382;28;19939;-96
2022/08/14 02:55:39;;;;;;;;;;;18.00;79.90;;;;;;5116641;28;19962;-96
2022/08/14 02:58:04;;;;;;;;;;;18.00;79.40;;;;;;5116159;28;20029;-95
2022/08/14 03:00:31;;;;;;;;;;;17.80;79.80;;;;;;5116551;28;19981;-96
2022/08/14 03:02:57;;;;;;;;;;;17.80;79.60;;;;;;5116141;28;19944;-96
2022/08/14 03:05:22;;;;;;;;;;;17.70;79.10;;;;;;5116494;28;19947;-95
2022/08/14 03:07:48;;;;;;;;;;;17.70;80.10;;;;;;5116120;28;19938;-96
2022/08/14 03:10:13;;;;;;;;;;;17.80;80.70;;;;;;5116281;28;19967;-96
2022/08/14 03:12:39;;;;;;;;;;;17.80;80.70;;;;;;5116284;28;20028;-95
2022/08/14 03:15:09;;;;;;;;;;;17.70;81.10;;;;;;5116279;28;19996;-95
2022/08/14 03:17:35;;;;;;;;;;;17.70;81.40;;;;;;5097901;28;19938;-96
2022/08/14 03:20:00;;;;;;;;;;;17.50;81.90;;;;;;5116137;28;19948;-96
2022/08/14 03:22:26;;;;;;;;;;;17.30;82.30;;;;;;5116119;28;19934;-96
2022/08/14 03:24:52;;;;;;;;;;;17.20;82.80;;;;;;5115901;28;19945;-96
2022/08/14 03:27:17;;;;;;;;;;;17.10;83.00;;;;;;5115996;28;19941;-96
2022/08/14 03:29:44;;;;;;;;;;;17.10;83.20;;;;;;5097303;28;20003;-95
2022/08/14 03:32:09;;;;;;;;;;;17.10;83.60;;;;;;5115972;28;19986;-96
2022/08/14 03:35:00;;;;;;;;;;;17.20;83.50;;;;;;5028648;28;20026;-96
2022/08/14 03:37:26;;;;;;;;;;;17.20;82.80;;;;;;5027815;28;20535;-96
2022/08/14 03:39:52;;;;;;;;;;;17.30;83.40;;;;;;5028108;28;20032;-96
2022/08/14 03:42:18;;;;;;;;;;;17.30;82.80;;;;;;5027777;28;20041;-96
2022/08/14 03:44:44;;;;;;;;;;;17.10;82.70;;;;;;5026486;28;19981;-96
2022/08/14 03:47:10;;;;;;;;;;;17.20;83.80;;;;;;5028069;28;19981;-96
2022/08/14 03:49:36;;;;;;;;;;;17.10;84.10;;;;;;5027698;28;19942;-96
2022/08/14 03:52:04;;;;;;;;;;;17.20;84.70;;;;;;5028223;28;19966;-95
2022/08/14 03:54:29;;;;;;;;;;;17.20;84.70;;;;;;5028138;28;19964;-96
2022/08/14 03:56:59;;;;;;;;;;;17.10;84.40;;;;;;5027702;28;19951;-96
2022/08/14 03:59:25;;;;;;;;;;;17.20;84.00;;;;;;5027812;28;19994;-96
2022/08/14 04:01:51;;;;;;;;;;;17.30;83.70;;;;;;5027804;28;20031;-95
2022/08/14 04:04:16;;;;;;;;;;;17.50;83.30;;;;;;5027459;28;20020;-96
2022/08/14 04:06:42;;;;;;;;;;;17.40;83.20;;;;;;5026180;28;19946;-95
2022/08/14 04:09:08;;;;;;;;;;;17.40;82.40;;;;;;5027695;28;20403;-96
2022/08/14 04:11:37;;;;;;;;;;;17.30;82.70;;;;;;5027333;28;20338;-96
2022/08/14 04:14:04;;;;;;;;;;;17.30;82.90;;;;;;5027792;28;19966;-95
2022/08/14 04:16:29;;;;;;;;;;;17.30;82.70;;;;;;5027318;28;20026;-96
2022/08/14 04:18:56;;;;;;;;;;;17.10;81.60;;;;;;5027562;28;19984;-96
2022/08/14 04:21:23;;;;;;;;;;;16.90;81.70;;;;;;5027480;28;20382;-96
2022/08/14 04:23:49;;;;;;;;;;;16.90;82.60;;;;;;5026487;28;20348;-96
2022/08/14 04:26:17;;;;;;;;;;;17.00;83.20;;;;;;5025904;28;19944;-96
2022/08/14 04:28:43;;;;;;;;;;;17.00;83.10;;;;;;5025825;28;20349;-96
2022/08/14 04:31:09;;;;;;;;;;;17.00;83.20;;;;;;5027447;28;19992;-96
2022/08/14 04:33:35;;;;;;;;;;;17.10;83.40;;;;;;5035547;28;19986;-96
2022/08/14 04:36:01;;;;;;;;;;;17.30;83.30;;;;;;5046960;28;19955;-96
2022/08/14 04:43:55;;;;;;;;;;;17.70;82.70;;;;;;5047019;28;19947;-96
2022/08/14 04:46:21;;;;;;;;;;;17.70;82.30;;;;;;5033460;28;19944;-96
2022/08/14 04:48:47;;;;;;;;;;;17.70;81.90;;;;;;5033691;28;19987;-96
2022/08/14 04:51:14;;;;;;;;;;;17.70;81.90;;;;;;5032120;28;19943;-96
2022/08/14 04:53:42;;;;;;;;;;;17.60;81.30;;;;;;5033520;28;19962;-96
2022/08/14 04:56:09;;;;;;;;;;;17.40;81.00;;;;;;5033576;28;19941;-96
2022/08/14 04:58:34;;;;;;;;;;;17.30;81.90;;;;;;5033183;28;20036;-96
2022/08/14 05:03:10;;;;;;;;;;;17.40;82.30;;;;;;5028695;28;19944;-96
2022/08/14 05:05:35;;;;;;;;;;;17.60;82.10;;;;;;5028196;28;20034;-96
2022/08/14 05:08:08;;;;;;;;;;;17.70;82.20;;;;;;5028381;28;20299;-96
2022/08/14 05:10:35;;;;;;;;;;;17.60;82.00;;;;;;5027807;28;19964;-96
2022/08/14 05:13:01;;;;;;;;;;;17.70;82.20;;;;;;5027997;28;20030;-96
2022/08/14 05:15:29;;;;;;;;;;;17.90;82.60;;;;;;5027729;28;20484;-96
2022/08/14 05:17:54;;;;;;;;;;;18.00;82.30;;;;;;5027958;28;19950;-96
2022/08/14 05:20:20;;;;;;;;;;;18.20;82.40;;;;;;5027884;28;19946;-96
2022/08/14 05:22:45;;;;;;;;;;;18.20;82.20;;;;;;5028129;28;20009;-96
2022/08/14 05:25:11;;;;;;;;;;;18.30;81.30;;;;;;5027531;28;20399;-96
2022/08/14 05:27:37;;;;;;;;;;;18.50;81.10;;;;;;5026297;28;19943;-96
2022/08/14 05:30:04;;;;;;;;;;;18.80;79.10;;;;;;5027793;28;19994;-96
2022/08/14 05:32:29;;;;;;;;;;;18.90;78.30;;;;;;5027741;28;20448;-96
2022/08/14 05:34:56;;;;;;;;;;;19.10;77.30;;;;;;5027488;28;20034;-96
2022/08/14 05:37:23;;;;;;;;;;;19.20;77.70;;;;;;5027349;28;20096;-96
2022/08/14 05:39:48;;;;;;;;;;;19.30;77.40;;;;;;5027641;28;20393;-96
2022/08/14 05:42:15;;;;;;;;;;;19.50;76.90;;;;;;5027273;28;19968;-96
2022/08/14 05:44:40;;;;;;;;;;;19.60;76.50;;;;;;5027543;28;20013;-96
2022/08/14 05:47:06;;;;;;;;;;;19.80;75.60;;;;;;5027231;28;20307;-96
2022/08/14 05:49:31;;;;;;;;;;;19.90;75.20;;;;;;5027474;28;19946;-96
2022/08/14 05:51:57;;;;;;;;;;;20.10;75.40;;;;;;5027425;28;19937;-96
2022/08/14 05:54:22;;;;;;;;;;;20.20;74.50;;;;;;5027674;28;19992;-96
2022/08/14 05:56:48;;;;;;;;;;;20.30;72.40;;;;;;5025758;28;19993;-96
2022/08/14 05:59:14;;;;;;;;;;;20.40;71.90;;;;;;5025748;28;19954;-96
2022/08/14 06:01:39;;;;;;;;;;;20.60;71.70;;;;;;5034825;28;19982;-96
2022/08/14 06:04:05;;;;;;;;;;;20.60;72.20;;;;;;5047385;28;19987;-96
2022/08/14 06:06:30;;;;;;;;;;;20.80;71.90;;;;;;5047061;28;19940;-96
2022/08/14 06:08:56;;;;;;;;;;;20.80;70.50;;;;;;5047039;28;20034;-96
2022/08/14 06:11:21;;;;;;;;;;;20.90;69.90;;;;;;5046740;28;19938;-96
2022/08/14 06:13:47;;;;;;;;;;;21.00;70.00;;;;;;5037792;28;19976;-96
2022/08/14 06:16:16;;;;;;;;;;;21.20;69.20;;;;;;5033320;28;19939;-96
2022/08/14 06:18:41;;;;;;;;;;;21.30;69.20;;;;;;5033637;28;19954;-96
2022/08/14 06:21:07;;;;;;;;;;;21.30;68.60;;;;;;5031975;28;19961;-96
2022/08/14 06:23:33;;;;;;;;;;;21.50;68.50;;;;;;5033538;28;19984;-96
2022/08/14 06:25:58;;;;;;;;;;;21.60;68.60;;;;;;5033228;28;20005;-96
2022/08/14 06:28:25;;;;;;;;;;;21.80;68.40;;;;;;5031959;28;20413;-96
2022/08/14 06:30:51;;;;;;;;;;;21.80;67.90;;;;;;5031901;28;19943;-96
2022/08/14 06:33:17;;;;;;;;;;;21.90;67.10;;;;;;5033693;28;20002;-96
2022/08/14 06:35:43;;;;;;;;;;;22.00;66.20;;;;;;5033040;28;19953;-96
2022/08/14 06:38:13;;;;;;;;;;;22.10;65.60;;;;;;5033373;28;19945;-96
2022/08/14 06:40:39;;;;;;;;;;;22.20;64.30;;;;;;5033330;28;19941;-96
2022/08/14 06:43:06;;;;;;;;;;;22.30;63.40;;;;;;5033446;28;20089;-96
2022/08/14 06:45:36;;;;;;;;;;;22.30;63.30;;;;;;5032925;28;20428;-96
2022/08/14 06:48:01;;;;;;;;;;;22.40;63.20;;;;;;5033156;28;19939;-96
2022/08/14 06:50:28;;;;;;;;;;;22.60;63.40;;;;;;5032873;28;19944;-96
2022/08/14 06:52:53;;;;;;;;;;;22.60;63.30;;;;;;5033345;28;19944;-96
2022/08/14 06:55:19;;;;;;;;;;;22.70;62.70;;;;;;5032812;28;19951;-96
2022/08/14 06:57:47;;;;;;;;;;;22.80;62.10;;;;;;5032746;28;19940;-96
2022/08/14 07:00:21;;;;;;;;;;;22.90;62.00;;;;;;5032983;28;19940;-96
2022/08/14 07:05:47;;;;;;;;;;;23.10;62.40;;;;;;5033226;28;20097;-96
2022/08/14 07:08:21;;;;;;;;;;;23.20;62.00;;;;;;5032888;28;19949;-96
2022/08/14 07:10:48;;;;;;;;;;;23.30;61.50;;;;;;5031889;28;19955;-96
2022/08/14 07:13:14;;;;;;;;;;;23.30;60.90;;;;;;5033082;28;19941;-96
2022/08/14 07:15:41;;;;;;;;;;;23.30;61.00;;;;;;5032767;28;20439;-96
2022/08/14 07:18:08;;;;;;;;;;;23.30;60.80;;;;;;5032734;28;19936;-96
2022/08/14 07:20:33;;;;;;;;;;;23.30;60.90;;;;;;5032400;28;19944;-96
2022/08/14 07:23:00;;;;;;;;;;;23.30;60.30;;;;;;5032551;28;19988;-96
2022/08/14 07:25:26;;;;;;;;;;;23.30;60.40;;;;;;5031265;28;19938;-96
2022/08/14 07:27:52;;;;;;;;;;;23.30;60.20;;;;;;5032551;28;20462;-96
2022/08/14 07:30:18;;;;;;;;;;;23.40;60.70;;;;;;5032245;28;19948;-96
2022/08/14 07:32:43;;;;;;;;;;;23.50;60.80;;;;;;5030945;28;19952;-96
2022/08/14 07:35:09;;;;;;;;;;;23.60;60.90;;;;;;5032477;28;20393;-96
2022/08/14 07:37:34;;;;;;;;;;;23.60;59.70;;;;;;5030785;28;19968;-96
2022/08/14 07:40:01;;;;;;;;;;;23.70;60.80;;;;;;5030811;28;19991;-96
2022/08/14 07:42:27;;;;;;;;;;;23.70;61.30;;;;;;5030739;28;19965;-96
2022/08/14 07:44:53;;;;;;;;;;;23.80;60.90;;;;;;5030754;28;19951;-96
2022/08/14 07:47:18;;;;;;;;;;;23.90;59.80;;;;;;5032260;28;20071;-96
2022/08/14 07:49:53;;;;;;;;;;;24.00;59.70;;;;;;5031961;28;19939;-96
2022/08/14 07:52:18;;;;;;;;;;;24.00;59.60;;;;;;5032169;28;19937;-96
2022/08/14 07:54:44;;;;;;;;;;;24.10;59.40;;;;;;5031856;28;20305;-96
2022/08/14 07:57:10;;;;;;;;;;;24.20;58.30;;;;;;5032055;28;20306;-96
2022/08/14 07:59:36;;;;;;;;;;;24.20;57.70;;;;;;5032379;28;19968;-96
2022/08/14 08:02:03;;;;;;;;;;;24.30;57.10;;;;;;5031600;28;20041;-96
2022/08/14 08:04:29;;;;;;;;;;;24.30;55.00;;;;;;5031991;28;19949;-96
2022/08/14 08:06:54;;;;;;;;;;;24.50;54.90;;;;;;5031979;28;19980;-96
2022/08/14 08:09:25;;;;;;;;;;;24.60;55.90;;;;;;5031926;28;19936;-96
2022/08/14 08:11:51;;;;;;;;;;;24.60;55.00;;;;;;5031947;28;19951;-96
2022/08/14 08:14:17;;;;;;;;;;;24.70;54.30;;;;;;5032169;28;20409;-96
2022/08/14 08:16:46;;;;;;;;;;;24.70;51.90;;;;;;5030278;28;19953;-96
2022/08/14 08:19:11;;;;;;;;;;;24.80;51.20;;;;;;5032483;28;19991;-96
2022/08/14 08:21:40;;;;;;;;;;;24.90;49.90;;;;;;5032073;28;19959;-96
2022/08/14 08:24:06;;;;;;;;;;;24.90;49.80;;;;;;5031010;28;20424;-96
2022/08/14 08:26:31;;;;;;;;;;;25.00;49.60;;;;;;5031555;28;19945;-96
2022/08/14 08:28:57;;;;;;;;;;;25.00;50.30;;;;;;5031776;28;20297;-96
2022/08/14 08:31:24;;;;;;;;;;;25.10;49.50;;;;;;5031813;28;20022;-96
2022/08/14 08:33:52;;;;;;;;;;;25.20;48.30;;;;;;5031890;28;19973;-96
2022/08/14 08:36:19;;;;;;;;;;;25.20;49.00;;;;;;5031553;28;19958;-96
2022/08/14 08:38:46;;;;;;;;;;;25.30;50.90;;;;;;5030438;28;20033;-96
2022/08/14 08:41:12;;;;;;;;;;;25.50;49.60;;;;;;5031562;28;19965;-96
2022/08/14 08:43:38;;;;;;;;;;;25.50;50.10;;;;;;5030090;28;20421;-96
2022/08/14 08:46:03;;;;;;;;;;;25.60;49.00;;;;;;5032024;28;19934;-96
2022/08/14 08:48:30;;;;;;;;;;;25.60;49.10;;;;;;5031501;28;19947;-96
2022/08/14 08:51:00;;;;;;;;;;;25.60;49.20;;;;;;5031366;28;19951;-96
2022/08/14 08:53:30;;;;;;;;;;;25.70;49.70;;;;;;5031343;28;19938;-96
2022/08/14 08:55:55;;;;;;;;;;;25.80;50.00;;;;;;5031608;28;20043;-96
2022/08/14 08:58:21;;;;;;;;;;;26.00;49.20;;;;;;5030847;28;19943;-96
2022/08/14 09:00:48;;;;;;;;;;;26.10;48.00;;;;;;5030980;28;19972;-96
2022/08/14 09:03:17;;;;;;;;;;;26.20;47.80;;;;;;5029662;28;19955;-96
2022/08/14 09:05:53;;;;;;;;;;;26.30;47.40;;;;;;5029636;28;19988;-96
2022/08/14 09:08:24;;;;;;;;;;;26.40;48.70;;;;;;5031434;28;19981;-96
2022/08/14 09:10:50;;;;;;;;;;;26.50;45.80;;;;;;5030815;28;19944;-96
2022/08/14 09:13:16;;;;;;;;;;;26.50;45.70;;;;;;5031116;28;20337;-96
2022/08/14 09:15:46;;;;;;;;;;;26.60;44.90;;;;;;5029498;28;19947;-96
2022/08/14 09:18:12;;;;;;;;;;;26.70;44.50;;;;;;5031017;28;19936;-96
2022/08/14 09:20:39;;;;;;;;;;;27.00;44.30;;;;;;5029480;28;19946;-96
2022/08/14 09:23:05;;;;;;;;;;;26.90;43.20;;;;;;5031176;28;20006;-96
2022/08/14 09:25:31;;;;;;;;;;;27.00;43.90;;;;;;5030932;28;20377;-96
2022/08/14 09:27:57;;;;;;;;;;;27.00;45.10;;;;;;5030916;28;19949;-96
2022/08/14 09:30:22;;;;;;;;;;;27.10;46.10;;;;;;5030862;28;19949;-96
2022/08/14 09:32:55;;;;;;;;;;;27.20;43.80;;;;;;5029315;28;19943;-96
2022/08/14 09:35:23;;;;;;;;;;;27.20;46.20;;;;;;5029138;28;19947;-96
2022/08/14 09:38:07;;;;;;;;;;;27.30;43.60;;;;;;5031040;28;19969;-96
2022/08/14 09:40:51;;;;;;;;;;;27.40;44.00;;;;;;5030482;28;20021;-96
2022/08/14 09:43:37;;;;;;;;;;;27.50;43.20;;;;;;5029183;28;19955;-96
2022/08/14 09:46:06;;;;;;;;;;;27.50;43.50;;;;;;5040579;28;19951;-96
2022/08/14 09:48:32;;;;;;;;;;;27.60;41.40;;;;;;5030443;28;19943;-96
2022/08/14 09:50:58;;;;;;;;;;;27.80;41.70;;;;;;5034074;28;20279;-96
2022/08/14 09:53:34;;;;;;;;;;;27.80;40.80;;;;;;5033917;28;20024;-96
2022/08/14 09:56:01;;;;;;;;;;;27.90;40.30;;;;;;5034314;28;19948;-96
2022/08/14 09:58:37;;;;;;;;;;;27.90;40.20;;;;;;5033606;28;19938;-96
2022/08/14 10:01:11;;;;;;;;;;;28.10;39.70;;;;;;5033638;28;19982;-96
2022/08/14 10:03:38;;;;;;;;;;;28.10;42.90;;;;;;5033877;28;19943;-96
2022/08/14 10:06:18;;;;;;;;;;;28.10;39.70;;;;;;5033577;28;19994;-96
2022/08/14 10:08:44;;;;;;;;;;;28.20;39.60;;;;;;5033795;28;20035;-96
2022/08/14 10:11:16;;;;;;;;;;;28.40;40.40;;;;;;5033496;28;20019;-96
2022/08/14 10:13:42;;;;;;;;;;;28.70;38.50;;;;;;5033769;28;19945;-96
2022/08/14 10:16:08;;;;;;;;;;;28.60;38.10;;;;;;5033427;28;20450;-96
2022/08/14 10:18:33;;;;;;;;;;;28.70;39.30;;;;;;5034080;28;19944;-96
2022/08/14 10:21:00;;;;;;;;;;;28.90;38.00;;;;;;5033295;28;19952;-96
2022/08/14 10:23:41;;;;;;;;;;;28.90;37.60;;;;;;5033620;28;19946;-96
2022/08/14 10:26:07;;;;;;;;;;;29.00;37.90;;;;;;5033554;28;20009;-96
2022/08/14 10:28:44;;;;;;;;;;;29.20;37.90;;;;;;5033559;28;19941;-96
2022/08/14 10:31:17;;;;;;;;;;;29.30;37.00;;;;;;5033492;28;19974;-96
2022/08/14 10:33:45;;;;;;;;;;;29.30;36.50;;;;;;5031918;28;19995;-96
2022/08/14 10:36:10;;;;;;;;;;;29.20;35.30;;;;;;5033413;28;20020;-96
2022/08/14 10:38:36;;;;;;;;;;;29.30;36.20;;;;;;5031849;28;20411;-96
2022/08/14 10:41:12;;;;;;;;;;;29.30;36.10;;;;;;5033260;28;19939;-96
2022/08/14 10:43:39;;;;;;;;;;;29.40;37.00;;;;;;5033288;28;19939;-96
2022/08/14 10:46:11;;;;;;;;;;;29.50;35.10;;;;;;5033258;28;19939;-96
2022/08/14 10:48:37;;;;;;;;;;;29.50;34.70;;;;;;5032930;28;19949;-96
2022/08/14 10:51:03;;;;;;;;;;;29.50;34.40;;;;;;5033165;28;20031;-96
2022/08/14 10:53:29;;;;;;;;;;;29.60;36.10;;;;;;5032824;28;19943;-96
2022/08/14 10:55:59;;;;;;;;;;;29.70;35.10;;;;;;5031588;28;20377;-96
2022/08/14 10:58:29;;;;;;;;;;;29.90;34.10;;;;;;5032777;28;19954;-96
2022/08/14 11:00:56;;;;;;;;;;;30.20;31.50;;;;;;5032670;28;19943;-96
2022/08/14 11:03:22;;;;;;;;;;;30.30;30.60;;;;;;5033275;28;19990;-96
2022/08/14 11:05:49;;;;;;;;;;;30.40;29.50;;;;;;5031400;28;19957;-96
2022/08/14 11:08:15;;;;;;;;;;;30.60;29.80;;;;;;5031386;28;19952;-96
2022/08/14 11:10:48;;;;;;;;;;;30.60;30.50;;;;;;5032828;28;19939;-96
2022/08/14 11:13:24;;;;;;;;;;;30.70;33.60;;;;;;5032550;28;19949;-96
2022/08/14 11:15:50;;;;;;;;;;;30.80;32.80;;;;;;5032795;28;19938;-96
2022/08/14 11:18:16;;;;;;;;;;;31.10;32.50;;;;;;5032488;28;19937;-96
2022/08/14 11:20:47;;;;;;;;;;;30.90;31.50;;;;;;5032687;28;19960;-96
2022/08/14 11:23:14;;;;;;;;;;;30.80;32.20;;;;;;5032583;28;19960;-96
2022/08/14 11:25:43;;;;;;;;;;;30.80;32.10;;;;;;5032602;28;19952;-96
2022/08/14 11:28:09;;;;;;;;;;;30.70;32.00;;;;;;5032613;28;19946;-96
2022/08/14 11:30:39;;;;;;;;;;;30.70;31.40;;;;;;5032565;28;20355;-96
2022/08/14 11:33:06;;;;;;;;;;;30.90;29.90;;;;;;5032460;28;20414;-96
2022/08/14 11:35:31;;;;;;;;;;;30.90;30.30;;;;;;5032389;28;19951;-96
2022/08/14 11:37:58;;;;;;;;;;;31.20;30.80;;;;;;5032449;28;19980;-96
2022/08/14 11:40:25;;;;;;;;;;;31.40;31.20;;;;;;5032132;28;19947;-96
2022/08/14 11:42:54;;;;;;;;;;;31.40;30.80;;;;;;5032117;28;20489;-96
2022/08/14 11:45:22;;;;;;;;;;;31.20;31.30;;;;;;5032621;28;19947;-96
2022/08/14 11:47:47;;;;;;;;;;;31.20;31.00;;;;;;5032020;28;20416;-96
2022/08/14 11:50:18;;;;;;;;;;;31.20;30.00;;;;;;5032275;28;19942;-96
2022/08/14 11:52:44;;;;;;;;;;;31.40;30.00;;;;;;5031954;28;20276;-96
2022/08/14 11:55:11;;;;;;;;;;;31.50;31.10;;;;;;5032406;28;20001;-96
2022/08/14 11:57:38;;;;;;;;;;;31.60;31.10;;;;;;5031821;28;19943;-96
2022/08/14 12:00:15;;;;;;;;;;;31.80;30.70;;;;;;5032371;28;20322;-96
2022/08/14 12:02:52;;;;;;;;;;;31.70;30.00;;;;;;5031556;28;20013;-96
2022/08/14 12:05:29;;;;;;;;;;;31.50;29.90;;;;;;5032084;28;20029;-96
2022/08/14 12:07:54;;;;;;;;;;;31.70;30.50;;;;;;5031736;28;19942;-96
2022/08/14 12:10:20;;;;;;;;;;;32.10;31.20;;;;;;5031542;28;20022;-96
2022/08/14 12:12:47;;;;;;;;;;;32.20;29.80;;;;;;5031817;28;19973;-96
2022/08/14 12:15:12;;;;;;;;;;;32.50;28.30;;;;;;5031873;28;20414;-96
2022/08/14 12:17:47;;;;;;;;;;;32.40;28.30;;;;;;5031654;28;19940;-96
2022/08/14 12:20:13;;;;;;;;;;;32.20;29.70;;;;;;5032076;28;20392;-96
2022/08/14 12:22:38;;;;;;;;;;;32.30;28.70;;;;;;5031489;28;19987;-96
2022/08/14 12:25:06;;;;;;;;;;;32.70;29.50;;;;;;5031773;28;19944;-96
2022/08/14 12:27:36;;;;;;;;;;;33.00;28.60;;;;;;5031481;28;20464;-96
2022/08/14 12:30:02;;;;;;;;;;;32.60;28.80;;;;;;5031666;28;19974;-96
2022/08/14 12:32:37;;;;;;;;;;;32.40;28.90;;;;;;5031283;28;20390;-96
2022/08/14 12:35:03;;;;;;;;;;;32.80;29.00;;;;;;5031597;28;19936;-96
2022/08/14 12:37:30;;;;;;;;;;;33.00;28.40;;;;;;5031548;28;19992;-96
2022/08/14 12:40:07;;;;;;;;;;;32.50;29.00;;;;;;5029971;28;20362;-96
2022/08/14 12:42:33;;;;;;;;;;;32.70;29.10;;;;;;5031552;28;19941;-96
2022/08/14 12:44:59;;;;;;;;;;;33.00;29.00;;;;;;5029925;28;20056;-96
2022/08/14 12:47:28;;;;;;;;;;;33.10;28.80;;;;;;5031450;28;19964;-96
2022/08/14 12:49:53;;;;;;;;;;;33.10;28.60;;;;;;5031327;28;19990;-96
2022/08/14 12:52:31;;;;;;;;;;;33.20;27.90;;;;;;5031721;28;20038;-96
2022/08/14 12:54:58;;;;;;;;;;;33.10;28.50;;;;;;5031356;28;19955;-96
2022/08/14 12:57:31;;;;;;;;;;;32.90;28.80;;;;;;5031015;28;20031;-96
2022/08/14 13:00:06;;;;;;;;;;;33.10;28.60;;;;;;5031369;28;20405;-96
2022/08/14 13:02:36;;;;;;;;;;;33.30;28.00;;;;;;5057796;22;19975;-96
2022/08/14 13:05:03;;;;;;;;;;;33.40;28.70;;;;;;5053990;28;19942;-96
2022/08/14 13:07:28;;;;;;;;;;;33.50;28.30;;;;;;5054000;28;20293;-96
2022/08/14 13:09:55;;;;;;;;;;;34.30;27.10;;;;;;5053678;28;19980;-96
2022/08/14 13:12:24;;;;;;;;;;;34.60;26.70;;;;;;5053838;28;20412;-96
2022/08/14 13:14:49;;;;;;;;;;;34.60;26.50;;;;;;5053927;28;19942;-96
2022/08/14 13:17:15;;;;;;;;;;;34.50;27.00;;;;;;5035729;28;19946;-96
2022/08/14 13:19:41;;;;;;;;;;;34.70;26.50;;;;;;5054167;28;19937;-96
2022/08/14 13:22:07;;;;;;;;;;;34.70;26.50;;;;;;5053575;28;19943;-96
2022/08/14 13:24:33;;;;;;;;;;;34.60;26.40;;;;;;5057057;28;20419;-96
2022/08/14 13:27:02;;;;;;;;;;;34.30;27.20;;;;;;5057578;28;19935;-96
2022/08/14 13:29:30;;;;;;;;;;;34.50;26.40;;;;;;5057838;28;19941;-96
2022/08/14 13:31:57;;;;;;;;;;;34.20;27.00;;;;;;5057375;28;19958;-96
2022/08/14 13:34:23;;;;;;;;;;;34.40;27.00;;;;;;5057608;28;19947;-96
2022/08/14 13:36:49;;;;;;;;;;;34.60;26.40;;;;;;5057766;28;20413;-96
2022/08/14 13:39:15;;;;;;;;;;;34.70;26.80;;;;;;5057626;28;19989;-96
2022/08/14 13:41:42;;;;;;;;;;;34.70;26.10;;;;;;5039371;28;19941;-96
2022/08/14 13:44:08;;;;;;;;;;;34.50;27.40;;;;;;5057470;28;19947;-96
2022/08/14 13:46:33;;;;;;;;;;;34.90;26.30;;;;;;5057489;28;20451;-96
2022/08/14 13:48:59;;;;;;;;;;;35.00;26.40;;;;;;5039274;28;20026;-96
2022/08/14 13:51:25;;;;;;;;;;;34.40;27.00;;;;;;5057154;28;19995;-96
2022/08/14 13:53:55;;;;;;;;;;;33.90;27.50;;;;;;5039216;28;19966;-96
2022/08/14 13:56:24;;;;;;;;;;;33.70;27.20;;;;;;5057570;28;20042;-96
2022/08/14 13:58:50;;;;;;;;;;;33.30;27.60;;;;;;5039033;28;19976;-96
2022/08/14 14:01:16;;;;;;;;;;;33.30;28.10;;;;;;5057254;28;19971;-96
2022/08/14 14:03:43;;;;;;;;;;;33.40;28.10;;;;;;5056934;28;19942;-96
2022/08/14 14:06:09;;;;;;;;;;;33.40;28.30;;;;;;5056976;28;19943;-96
2022/08/14 14:08:39;;;;;;;;;;;33.10;28.60;;;;;;5056926;28;19939;-96
2022/08/14 14:11:05;;;;;;;;;;;33.00;28.50;;;;;;5057146;28;19949;-96
2022/08/14 14:13:31;;;;;;;;;;;33.10;28.50;;;;;;5057173;28;19944;-96
2022/08/14 14:16:02;;;;;;;;;;;33.20;28.00;;;;;;5057209;28;19945;-96
2022/08/14 14:18:28;;;;;;;;;;;33.20;27.90;;;;;;5056686;28;19942;-96
2022/08/14 14:20:54;;;;;;;;;;;33.20;28.60;;;;;;5056868;28;19967;-96
2022/08/14 14:23:19;;;;;;;;;;;34.20;27.30;;;;;;5056809;28;20553;-96
2022/08/14 14:25:45;;;;;;;;;;;35.50;26.10;;;;;;5056781;28;20019;-96
2022/08/14 14:28:15;;;;;;;;;;;36.70;23.90;;;;;;5056754;28;19991;-96
2022/08/14 14:30:44;;;;;;;;;;;37.00;23.50;;;;;;5056713;28;19944;-96